Time;durP1;ratioP1;P1;durP2;ratioP2;P2;SDS_P1;SDS_P2;PMS_P1;PMS_P2;Temp;Humidity;BMP_temperature;BMP_pressure;BME280_temperature;BME280_humidity;BME280_pressure;Samples;Min_cycle;Max_cycle;Signal;HPM_P1;HPM_P2
2023/11/15 00:00:51;;;;;;;7.57;5.63;;;;;;;3.64;82.21;97604.06;5135191;27;20043;-62
2023/11/15 00:03:16;;;;;;;8.07;5.90;;;;;;;3.70;81.82;97606.78;5135568;27;20039;-60
2023/11/15 00:05:43;;;;;;;10.77;6.10;;;;;;;3.72;81.71;97610.75;5135293;27;20042;-63
2023/11/15 00:08:09;;;;;;;10.15;6.25;;;;;;;3.72;82.31;97608.13;5126855;27;20048;-62
2023/11/15 00:10:35;;;;;;;10.13;5.90;;;;;;;3.78;82.10;97606.41;5124908;27;20051;-61
2023/11/15 00:13:01;;;;;;;10.90;6.15;;;;;;;3.84;81.68;97602.81;5134611;27;20096;-61
2023/11/15 00:15:27;;;;;;;7.18;5.25;;;;;;;3.90;82.00;97604.50;5134727;27;20069;-62
2023/11/15 00:17:53;;;;;;;10.55;6.38;;;;;;;3.91;81.51;97608.69;5133608;27;20064;-61
2023/11/15 00:20:18;;;;;;;8.68;6.22;;;;;;;3.91;81.97;97602.66;5134504;27;20092;-61
2023/11/15 00:22:44;;;;;;;9.35;5.68;;;;;;;3.89;82.21;97597.69;5134975;27;20050;-61
2023/11/15 00:25:10;;;;;;;7.82;5.57;;;;;;;3.89;82.30;97600.28;5134614;27;20431;-63
2023/11/15 00:27:36;;;;;;;8.65;5.65;;;;;;;3.87;82.76;97600.50;5134428;27;20080;-60
2023/11/15 00:30:03;;;;;;;10.32;6.25;;;;;;;3.85;83.21;97597.34;5133468;27;20047;-61
2023/11/15 00:32:32;;;;;;;;;;;;;;;3.90;83.42;97601.88;5135298;27;20035;-60
2023/11/15 00:34:58;;;;;;;8.27;5.78;;;;;;;3.91;82.99;97595.59;5133504;27;20030;-60
2023/11/15 00:37:23;;;;;;;9.43;6.13;;;;;;;3.90;82.59;97601.09;5133063;27;20085;-61
2023/11/15 00:39:49;;;;;;;9.23;5.95;;;;;;;3.89;83.44;97597.69;5133263;27;20459;-61
2023/11/15 00:42:15;;;;;;;11.10;6.47;;;;;;;3.94;83.13;97596.94;5134238;27;20075;-61
2023/11/15 00:44:41;;;;;;;9.65;6.03;;;;;;;3.98;82.67;97601.47;5134552;27;20066;-61
2023/11/15 00:47:06;;;;;;;8.23;5.55;;;;;;;3.98;82.75;97591.00;5134353;27;20507;-61
2023/11/15 00:49:33;;;;;;;8.75;6.05;;;;;;;4.01;83.05;97590.53;5133493;27;20476;-61
2023/11/15 00:51:58;;;;;;;8.95;6.00;;;;;;;4.00;83.06;97588.13;5115285;27;20087;-60
2023/11/15 00:54:24;;;;;;;10.75;6.45;;;;;;;3.99;82.76;97589.94;5115762;27;20035;-64
2023/11/15 00:56:50;;;;;;;9.50;6.10;;;;;;;3.97;82.25;97583.34;5133733;27;20092;-62
2023/11/15 00:59:21;;;;;;;8.55;5.78;;;;;;;3.95;82.90;97590.69;5132738;27;20050;-61
2023/11/15 01:01:57;;;;;;;11.85;6.25;;;;;;;3.97;82.93;97578.13;5133962;27;20035;-60
2023/11/15 01:04:24;;;;;;;9.68;6.15;;;;;;;3.98;83.13;97588.38;5134288;27;20068;-60
2023/11/15 01:06:50;;;;;;;10.57;6.47;;;;;;;3.86;82.99;97587.66;5133806;27;20043;-60
2023/11/15 01:09:16;;;;;;;8.50;6.13;;;;;;;3.92;83.35;97588.53;5115887;27;20412;-62
2023/11/15 01:11:43;;;;;;;8.90;6.20;;;;;;;3.92;83.14;97588.53;5112539;28;20047;-61
2023/11/15 01:14:08;;;;;;;8.68;6.18;;;;;;;3.96;83.53;97584.41;5111927;28;20049;-61
2023/11/15 01:16:34;;;;;;;9.73;6.25;;;;;;;4.01;83.07;97587.91;5116781;27;20044;-61
2023/11/15 01:19:00;;;;;;;11.15;6.13;;;;;;;3.96;82.80;97579.94;5133133;27;20495;-59
2023/11/15 01:21:27;;;;;;;8.18;5.65;;;;;;;3.98;83.28;97584.97;5132816;27;20046;-61
2023/11/15 01:23:53;;;;;;;8.75;6.28;;;;;;;3.97;82.92;97584.19;5133899;27;20122;-61
2023/11/15 01:26:19;;;;;;;11.57;7.60;;;;;;;3.94;83.33;97583.84;5132513;27;20126;-61
2023/11/15 01:28:46;;;;;;;11.77;6.68;;;;;;;3.97;83.40;97584.19;5133947;27;20092;-61
2023/11/15 01:31:12;;;;;;;9.57;6.45;;;;;;;3.96;83.46;97587.03;5133626;27;20042;-63
2023/11/15 01:33:37;;;;;;;9.75;6.22;;;;;;;4.01;84.21;97587.91;5133783;27;20043;-60
2023/11/15 01:36:04;;;;;;;13.13;6.88;;;;;;;4.05;83.52;97590.84;5115398;27;20515;-62
2023/11/15 01:38:30;;;;;;;11.77;7.28;;;;;;;4.04;82.72;97597.91;5132203;27;20039;-62
2023/11/15 01:40:56;;;;;;;8.82;5.78;;;;;;;3.95;83.65;97593.31;5132471;27;20084;-63
2023/11/15 01:43:22;;;;;;;10.25;6.70;;;;;;;3.94;83.51;97589.06;5133446;27;20445;-61
2023/11/15 01:45:50;;;;;;;8.77;5.93;;;;;;;3.95;83.83;97591.47;5132369;27;20070;-62
2023/11/15 01:48:16;;;;;;;12.85;6.97;;;;;;;3.87;83.81;97595.28;5115097;27;20453;-61
2023/11/15 01:50:46;;;;;;;10.38;6.30;;;;;;;3.95;83.63;97588.06;5132408;27;20049;-61
2023/11/15 01:53:13;;;;;;;10.93;6.43;;;;;;;3.92;83.99;97589.34;5115702;27;20291;-60
2023/11/15 01:55:39;;;;;;;9.80;5.93;;;;;;;3.97;83.54;97589.41;5132609;27;20137;-59
2023/11/15 01:58:06;;;;;;;12.23;7.40;;;;;;;4.02;83.17;97589.47;5115457;27;20085;-60
2023/11/15 02:00:35;;;;;;;13.07;7.85;;;;;;;4.04;83.09;97595.28;5132766;27;20526;-60
2023/11/15 02:03:01;;;;;;;9.90;6.78;;;;;;;4.04;82.66;97599.75;5133728;27;20050;-60
2023/11/15 02:05:27;;;;;;;11.98;7.45;;;;;;;4.02;83.01;97594.72;5132543;27;20420;-60
2023/11/15 02:07:53;;;;;;;10.60;6.63;;;;;;;4.00;82.83;97599.44;5127199;27;20047;-62
2023/11/15 02:10:19;;;;;;;11.82;6.63;;;;;;;4.00;82.42;97596.81;5128342;27;20691;-61
2023/11/15 02:12:46;;;;;;;14.65;7.82;;;;;;;4.04;82.47;97595.28;5131784;27;20051;-60
2023/11/15 02:15:15;;;;;;;8.98;6.25;;;;;;;4.05;82.88;97599.47;5131233;27;20039;-62
2023/11/15 02:17:43;;;;;;;12.50;6.72;;;;;;;4.06;82.84;97602.94;5131844;27;20063;-61
2023/11/15 02:20:09;;;;;;;10.35;6.50;;;;;;;4.07;82.50;97604.50;5131313;27;20099;-61
2023/11/15 02:22:46;;;;;;;11.07;6.88;;;;;;;4.09;81.56;97605.06;5132664;27;20039;-60
2023/11/15 02:25:13;;;;;;;9.52;6.53;;;;;;;4.09;81.52;97603.25;5132405;27;20406;-61
2023/11/15 02:27:39;;;;;;;9.82;6.05;;;;;;;4.11;82.33;97600.34;5131436;27;20050;-61
2023/11/15 02:30:08;;;;;;;11.05;6.55;;;;;;;4.10;81.49;97604.81;5131748;27;20039;-62
2023/11/15 02:32:39;;;;;;;9.75;6.25;;;;;;;4.05;81.09;97609.19;5132928;27;20035;-59
2023/11/15 02:35:07;;;;;;;;;;;;;;;4.05;81.58;97615.22;5132730;27;20172;-61
2023/11/15 02:37:34;;;;;;;10.25;6.28;;;;;;;4.06;80.69;97616.03;5131201;27;19927;-60
2023/11/15 02:40:04;;;;;;;9.55;5.80;;;;;;;4.00;80.90;97612.53;5131199;27;20046;-60
2023/11/15 02:42:33;;;;;;;10.18;6.07;;;;;;;4.02;81.56;97622.78;5132643;27;20506;-62
2023/11/15 02:44:59;;;;;;;11.18;6.60;;;;;;;4.04;80.99;97608.41;5132265;27;20121;-60
2023/11/15 02:47:25;;;;;;;9.50;6.15;;;;;;;4.07;80.47;97615.78;5130913;27;20400;-61
2023/11/15 02:49:52;;;;;;;19.70;12.55;;;;;;;4.09;81.73;97620.81;5132047;27;20047;-61
2023/11/15 02:52:19;;;;;;;11.13;7.10;;;;;;;4.03;81.47;97624.34;5130940;28;20510;-60
2023/11/15 02:54:45;;;;;;;10.68;7.20;;;;;;;4.04;81.73;97628.59;5131038;28;20043;-61
2023/11/15 02:57:13;;;;;;;10.75;6.85;;;;;;;4.09;82.02;97626.06;5131858;28;20403;-60
2023/11/15 02:59:39;;;;;;;13.27;6.70;;;;;;;4.12;81.18;97628.19;5132467;27;20047;-61
2023/11/15 03:02:05;;;;;;;10.60;6.70;;;;;;;4.17;81.14;97633.50;5112230;27;20063;-60
2023/11/15 03:04:31;;;;;;;10.98;7.00;;;;;;;4.12;81.25;97624.75;5090441;28;20039;-61
2023/11/15 03:06:57;;;;;;;9.32;6.25;;;;;;;4.12;80.70;97632.63;5113344;28;20040;-60
2023/11/15 03:09:22;;;;;;;10.05;5.85;;;;;;;4.09;80.23;97626.84;5109909;28;20035;-61
2023/11/15 03:11:48;;;;;;;11.02;6.85;;;;;;;4.13;80.67;97636.84;5112028;28;20065;-61
2023/11/15 03:14:14;;;;;;;11.75;7.10;;;;;;;4.11;80.93;97637.06;5111234;28;20038;-61
2023/11/15 03:16:40;;;;;;;11.93;7.55;;;;;;;4.15;80.79;97637.38;5119790;28;20400;-62
2023/11/15 03:19:07;;;;;;;11.23;7.32;;;;;;;4.20;81.02;97640.09;5131008;28;20042;-61
2023/11/15 03:21:33;;;;;;;10.68;6.70;;;;;;;4.18;81.01;97642.97;5130343;28;20031;-60
2023/11/15 03:23:58;;;;;;;9.43;6.28;;;;;;;4.16;80.80;97641.63;5130812;28;20042;-61
2023/11/15 03:26:24;;;;;;;10.27;6.97;;;;;;;4.19;81.03;97641.94;5130713;28;20039;-62
2023/11/15 03:28:50;;;;;;;11.25;6.50;;;;;;;4.15;80.58;97632.97;5132393;27;20050;-61
2023/11/15 03:31:17;;;;;;;12.98;7.60;;;;;;;4.16;81.29;97633.75;5130441;28;20039;-61
2023/11/15 03:33:50;;;;;;;10.40;7.72;;;;;;;4.10;80.53;97628.41;5130915;28;20050;-61
2023/11/15 03:36:16;;;;;;;10.90;6.22;;;;;;;4.05;80.04;97623.09;5131777;27;20042;-60
2023/11/15 03:38:42;;;;;;;9.32;6.45;;;;;;;4.03;78.69;97622.53;5132340;27;20047;-61
2023/11/15 03:41:09;;;;;;;10.20;6.68;;;;;;;3.94;78.05;97626.59;5132904;27;20050;-62
2023/11/15 03:43:39;;;;;;;11.68;7.38;;;;;;;3.95;78.75;97622.94;5135872;27;20480;-60
2023/11/15 03:46:05;;;;;;;12.63;7.88;;;;;;;3.93;78.49;97622.38;5134589;27;20047;-59
2023/11/15 03:48:32;;;;;;;9.00;5.85;;;;;;;3.85;78.22;97623.56;5135747;27;20043;-61
2023/11/15 03:50:58;;;;;;;7.60;5.50;;;;;;;3.87;78.68;97623.31;5117411;27;20390;-62
2023/11/15 03:53:24;;;;;;;8.05;5.30;;;;;;;3.92;78.16;97614.75;5134262;27;20074;-61
2023/11/15 03:55:52;;;;;;;7.65;5.00;;;;;;;3.95;77.42;97624.75;5135578;27;20100;-62
2023/11/15 03:58:18;;;;;;;7.22;4.93;;;;;;;3.95;77.77;97622.94;5135584;27;20046;-59
2023/11/15 04:00:44;;;;;;;6.38;4.63;;;;;;;3.95;77.80;97630.81;5135380;27;20035;-63
2023/11/15 04:03:10;;;;;;;9.13;5.28;;;;;;;3.97;77.27;97633.16;5133725;27;20095;-62
2023/11/15 04:05:36;;;;;;;8.18;4.95;;;;;;;3.98;77.73;97626.91;5117237;27;20047;-60
2023/11/15 04:08:02;;;;;;;8.40;5.40;;;;;;;4.03;77.52;97625.16;5135147;27;20049;-61
2023/11/15 04:10:28;;;;;;;8.15;5.45;;;;;;;4.06;77.81;97626.53;5135203;27;20031;-59
2023/11/15 04:12:53;;;;;;;8.85;5.63;;;;;;;4.11;77.67;97637.06;5133953;27;20038;-61
2023/11/15 04:15:19;;;;;;;8.65;5.53;;;;;;;4.13;78.34;97639.47;5115570;27;20078;-61
2023/11/15 04:17:45;;;;;;;7.82;5.65;;;;;;;4.14;78.19;97639.22;5115558;27;20051;-60
2023/11/15 04:20:11;;;;;;;7.05;4.93;;;;;;;4.13;77.95;97634.22;5135789;27;20088;-63
2023/11/15 04:22:37;;;;;;;9.40;5.72;;;;;;;4.15;78.17;97637.38;5134103;27;20039;-61
2023/11/15 04:25:04;;;;;;;7.95;5.60;;;;;;;4.17;78.70;97636.13;5134849;27;20039;-63
2023/11/15 04:27:31;;;;;;;10.98;6.50;;;;;;;4.17;78.97;97646.59;5133739;27;20419;-60
2023/11/15 04:29:57;;;;;;;8.43;6.35;;;;;;;4.10;79.08;97643.34;5134394;27;20042;-61
2023/11/15 04:32:24;;;;;;;9.05;5.47;;;;;;;4.09;78.12;97639.94;5134763;27;20449;-60
2023/11/15 04:34:50;;;;;;;8.30;5.35;;;;;;;4.11;77.84;97650.19;5134760;27;20074;-61
2023/11/15 04:37:16;;;;;;;6.95;4.88;;;;;;;4.07;76.39;97647.25;5134672;27;20505;-60
2023/11/15 04:39:43;;;;;;;6.90;4.60;;;;;;;4.08;76.19;97646.19;5133453;27;20035;-61
2023/11/15 04:42:10;;;;;;;8.15;4.97;;;;;;;4.12;76.53;97657.03;5134696;27;20378;-59
2023/11/15 04:44:36;;;;;;;7.03;4.97;;;;;;;4.08;75.81;97658.53;5134334;27;20046;-61
2023/11/15 04:47:03;;;;;;;8.80;5.47;;;;;;;3.97;76.01;97652.34;5134546;27;20091;-62
2023/11/15 04:49:29;;;;;;;7.93;5.50;;;;;;;4.04;76.69;97652.19;5134528;27;20184;-61
2023/11/15 04:51:56;;;;;;;8.43;5.43;;;;;;;4.02;76.92;97654.22;5133160;27;20441;-61
2023/11/15 04:54:21;;;;;;;8.57;5.53;;;;;;;3.96;76.58;97661.22;5133312;27;20043;-61
2023/11/15 04:56:47;;;;;;;14.05;9.30;;;;;;;3.90;77.19;97664.00;5133938;27;20039;-61
2023/11/15 04:59:13;;;;;;;17.33;11.68;;;;;;;3.85;77.30;97662.88;5132922;27;20055;-64
2023/11/15 05:01:41;;;;;;;16.55;10.70;;;;;;;3.82;77.09;97658.13;5134000;27;20094;-60
2023/11/15 05:04:07;;;;;;;12.55;8.15;;;;;;;3.76;77.57;97664.28;5133837;27;20043;-64
2023/11/15 05:06:33;;;;;;;15.27;9.02;;;;;;;3.80;78.60;97659.38;5132701;27;20050;-61
2023/11/15 05:08:59;;;;;;;11.13;7.55;;;;;;;3.81;77.60;97655.72;5116862;27;20523;-62
2023/11/15 05:11:26;;;;;;;10.18;7.03;;;;;;;3.80;78.10;97662.78;5132452;27;20067;-62
2023/11/15 05:13:52;;;;;;;12.75;8.52;;;;;;;3.86;78.72;97669.72;5134236;27;20039;-61
2023/11/15 05:16:17;;;;;;;13.68;7.82;;;;;;;3.93;77.96;97674.00;5128647;27;20527;-62
2023/11/15 05:18:43;;;;;;;10.80;6.45;;;;;;;3.98;78.82;97672.28;5113688;28;20050;-61
2023/11/15 05:21:09;;;;;;;8.95;6.03;;;;;;;4.01;78.78;97671.00;5127015;27;20047;-62
2023/11/15 05:23:35;;;;;;;9.05;6.43;;;;;;;4.01;78.72;97676.25;5132300;27;20080;-61
2023/11/15 05:26:01;;;;;;;10.85;5.97;;;;;;;4.02;79.16;97672.59;5132064;27;20118;-64
2023/11/15 05:28:26;;;;;;;9.90;6.03;;;;;;;4.05;78.55;97672.91;5133698;27;20047;-62
2023/11/15 05:30:52;;;;;;;8.95;5.97;;;;;;;4.03;78.36;97676.78;5132378;27;20039;-60
2023/11/15 05:33:20;;;;;;;10.20;6.55;;;;;;;4.03;78.62;97667.13;5132260;27;20084;-60
2023/11/15 05:35:48;;;;;;;9.18;5.85;;;;;;;4.05;78.70;97678.16;5096085;27;20050;-60
2023/11/15 05:38:14;;;;;;;8.50;5.60;;;;;;;4.06;78.70;97674.50;5131427;27;20438;-58
2023/11/15 05:40:40;;;;;;;10.10;6.10;;;;;;;4.08;78.88;97679.50;5133266;27;20498;-62
2023/11/15 05:43:07;;;;;;;11.55;5.60;;;;;;;4.11;78.86;97673.78;5131259;27;20039;-58
2023/11/15 05:45:33;;;;;;;8.80;5.60;;;;;;;4.12;77.63;97678.00;5132706;27;20043;-60
2023/11/15 05:47:58;;;;;;;9.70;5.63;;;;;;;4.11;77.64;97673.78;5133198;27;20031;-59
2023/11/15 05:50:24;;;;;;;8.88;6.05;;;;;;;4.11;78.37;97676.41;5133334;27;20050;-61
2023/11/15 05:52:52;;;;;;;9.68;5.70;;;;;;;4.17;77.52;97674.66;5117180;27;20043;-60
2023/11/15 05:55:18;;;;;;;10.27;6.57;;;;;;;4.19;77.03;97686.50;5112083;28;20054;-60
2023/11/15 05:57:45;;;;;;;8.68;5.28;;;;;;;4.18;76.81;97681.53;5111262;28;20032;-58
2023/11/15 06:00:19;;;;;;;9.65;5.93;;;;;;;4.23;77.51;97684.19;5111251;27;20431;-60
2023/11/15 06:02:49;;;;;;;11.63;7.07;;;;;;;4.22;78.39;97682.63;5113271;27;20047;-59
2023/11/15 06:05:16;;;;;;;9.75;6.05;;;;;;;4.23;77.31;97681.56;5111789;28;20516;-60
2023/11/15 06:07:42;;;;;;;11.40;5.63;;;;;;;4.24;75.60;97683.19;5126464;27;20036;-59
2023/11/15 06:10:10;;;;;;;10.00;5.88;;;;;;;4.24;76.41;97685.81;5124856;27;20129;-60
2023/11/15 06:12:36;;;;;;;7.80;4.95;;;;;;;4.28;76.91;97689.53;5132751;27;20403;-58
2023/11/15 06:15:03;;;;;;;10.18;6.22;;;;;;;4.36;76.15;97683.91;5131066;27;20035;-60
2023/11/15 06:17:30;;;;;;;8.60;6.05;;;;;;;4.42;76.86;97687.41;5130504;27;20086;-59
2023/11/15 06:19:57;;;;;;;8.25;5.63;;;;;;;4.40;75.79;97684.22;5121993;27;20075;-61
2023/11/15 06:22:23;;;;;;;9.30;5.93;;;;;;;4.45;74.98;97686.91;5118877;27;20484;-60
2023/11/15 06:24:50;;;;;;;8.50;5.18;;;;;;;4.51;74.33;97680.72;5132281;27;20047;-60
2023/11/15 06:27:17;;;;;;;7.28;4.80;;;;;;;4.40;75.14;97692.88;5132378;27;20031;-60
2023/11/15 06:29:52;;;;;;;6.82;4.85;;;;;;;4.22;73.85;97680.00;5131088;27;20035;-60
2023/11/15 06:32:18;;;;;;;6.80;4.53;;;;;;;4.04;73.90;97684.44;5097747;27;20038;-59
2023/11/15 06:34:47;;;;;;;7.38;5.40;;;;;;;3.99;75.27;97691.41;5132313;27;20047;-58
2023/11/15 06:37:17;;;;;;;9.55;5.50;;;;;;;3.91;75.61;97697.81;5119659;27;20588;-58
2023/11/15 06:39:43;;;;;;;7.95;5.20;;;;;;;3.87;76.53;97699.34;5117889;27;20122;-60
2023/11/15 06:42:12;;;;;;;10.07;5.90;;;;;;;3.79;76.66;97695.25;5109605;28;20092;-61
2023/11/15 06:44:38;;;;;;;9.50;6.40;;;;;;;3.76;76.84;97706.22;5119996;27;20051;-58
2023/11/15 06:47:08;;;;;;;9.73;6.50;;;;;;;3.73;77.32;97701.44;5113695;27;20389;-58
2023/11/15 06:49:35;;;;;;;;;;;;;;;3.70;77.94;97694.03;5062908;28;20493;-59
2023/11/15 06:52:01;;;;;;;12.07;6.57;;;;;;;3.69;77.61;97697.69;5109825;28;19920;-58
2023/11/15 06:54:27;;;;;;;11.15;7.22;;;;;;;3.71;77.69;97706.13;5116289;28;20037;-58
2023/11/15 06:56:53;;;;;;;8.70;6.03;;;;;;;3.74;76.44;97697.81;5131823;27;20050;-58
2023/11/15 06:59:19;;;;;;;7.38;5.47;;;;;;;3.82;76.23;97715.78;5131878;27;20070;-58
2023/11/15 07:01:48;;;;;;;7.80;5.28;;;;;;;3.93;76.33;97710.72;5131794;27;20572;-59
2023/11/15 07:04:17;;;;;;;13.02;6.13;;;;;;;4.05;75.73;97716.69;5111681;28;20499;-59
2023/11/15 07:06:45;;;;;;;11.52;7.68;;;;;;;4.09;75.03;97715.19;5101095;28;20031;-59
2023/11/15 07:09:12;;;;;;;9.30;6.70;;;;;;;4.17;75.34;97716.63;5119249;28;20492;-60
2023/11/15 07:11:47;;;;;;;12.10;7.97;;;;;;;4.24;75.42;97719.91;5120712;27;20034;-59
2023/11/15 07:14:17;;;;;;;17.10;9.00;;;;;;;4.31;75.46;97723.16;5115255;28;20047;-60
2023/11/15 07:16:52;;;;;;;12.00;6.88;;;;;;;4.37;74.96;97726.66;5124022;27;20371;-60
2023/11/15 07:19:18;;;;;;;9.50;5.68;;;;;;;4.36;74.73;97718.00;5124161;27;20669;-60
2023/11/15 07:21:44;;;;;;;9.63;6.15;;;;;;;4.42;74.42;97727.53;5123123;27;20110;-59
2023/11/15 07:24:10;;;;;;;10.45;6.50;;;;;;;4.43;75.25;97728.34;5124489;27;20135;-61
2023/11/15 07:26:37;;;;;;;11.80;6.28;;;;;;;4.44;74.29;97722.03;5123435;27;20084;-59
2023/11/15 07:29:09;;;;;;;13.52;8.02;;;;;;;4.39;73.30;97724.59;5123551;27;20049;-58
2023/11/15 07:31:36;;;;;;;9.88;6.38;;;;;;;4.37;73.77;97714.34;5123628;27;20039;-55
2023/11/15 07:34:05;;;;;;;12.85;8.00;;;;;;;4.32;73.23;97727.38;5123160;27;20050;-60
2023/11/15 07:36:33;;;;;;;18.13;8.87;;;;;;;4.41;73.54;97723.34;5124397;27;20086;-60
2023/11/15 07:39:04;;;;;;;12.13;7.07;;;;;;;4.45;73.28;97734.16;5123829;27;20255;-60
2023/11/15 07:41:31;;;;;;;12.25;7.38;;;;;;;4.46;73.74;97733.91;5094651;28;20590;-59
2023/11/15 07:43:58;;;;;;;10.38;7.03;;;;;;;4.46;74.60;97733.91;5104734;27;20047;-59
2023/11/15 07:46:25;;;;;;;10.60;6.25;;;;;;;4.46;75.23;97731.28;5135165;27;20043;-59
2023/11/15 07:48:51;;;;;;;10.60;6.45;;;;;;;4.47;75.29;97737.31;5135370;27;20039;-59
2023/11/15 07:51:18;;;;;;;11.43;6.80;;;;;;;4.45;75.29;97734.94;5135188;27;20500;-60
2023/11/15 07:53:45;;;;;;;12.60;7.25;;;;;;;4.50;74.46;97742.06;5116989;27;20396;-59
2023/11/15 07:56:11;;;;;;;12.27;8.20;;;;;;;4.52;76.15;97740.03;5116718;27;20542;-58
2023/11/15 07:58:39;;;;;;;12.43;7.35;;;;;;;4.56;76.21;97751.66;5099491;27;20075;-57
2023/11/15 08:01:05;;;;;;;12.07;6.65;;;;;;;4.56;75.06;97746.41;5133870;27;20042;-59
2023/11/15 08:03:31;;;;;;;11.93;7.35;;;;;;;4.60;74.89;97741.47;5132149;27;20035;-56
2023/11/15 08:05:57;;;;;;;12.00;7.45;;;;;;;4.64;74.68;97745.19;5088223;27;20366;-58
2023/11/15 08:08:23;;;;;;;13.25;6.68;;;;;;;4.69;75.38;97753.94;5069869;27;20138;-59
2023/11/15 08:10:50;;;;;;;9.80;6.00;;;;;;;4.64;75.67;97753.06;5134972;27;20145;-60
2023/11/15 08:13:20;;;;;;;10.95;6.20;;;;;;;4.70;74.93;97758.16;5116678;27;20039;-58
2023/11/15 08:15:47;;;;;;;8.60;6.03;;;;;;;4.70;75.23;97752.91;5102835;27;20454;-58
2023/11/15 08:18:14;;;;;;;8.30;5.30;;;;;;;4.73;74.54;97755.03;5134972;27;20047;-59
2023/11/15 08:20:43;;;;;;;8.13;5.93;;;;;;;4.78;74.53;97756.97;5116013;27;20401;-59
2023/11/15 08:23:12;;;;;;;10.25;6.47;;;;;;;4.79;74.46;97755.91;5133818;27;20042;-61
2023/11/15 08:25:48;;;;;;;8.70;6.18;;;;;;;4.70;72.16;97757.34;5134414;27;20617;-59
2023/11/15 08:28:14;;;;;;;8.93;6.03;;;;;;;4.74;72.33;97759.28;5115926;27;20066;-59
2023/11/15 08:30:40;;;;;;;10.32;6.25;;;;;;;4.77;72.48;97752.75;5134458;27;20090;-61
2023/11/15 08:33:05;;;;;;;9.77;5.60;;;;;;;4.73;72.83;97759.50;5134184;27;20439;-58
2023/11/15 08:35:35;;;;;;;10.05;6.47;;;;;;;4.75;73.19;97765.31;5134438;27;20453;-58
2023/11/15 08:38:01;;;;;;;9.90;6.30;;;;;;;4.78;72.69;97757.75;5116210;27;20047;-60
2023/11/15 08:40:27;;;;;;;10.15;6.35;;;;;;;4.83;71.77;97759.69;5134272;27;20144;-61
2023/11/15 08:42:53;;;;;;;9.18;6.20;;;;;;;4.89;71.37;97766.59;5121128;27;20051;-60
2023/11/15 08:45:19;;;;;;;11.15;5.95;;;;;;;4.91;72.93;97768.97;5112336;27;20043;-60
2023/11/15 08:47:46;;;;;;;8.50;5.90;;;;;;;4.95;72.08;97770.09;5125692;27;20046;-60
2023/11/15 08:50:14;;;;;;;11.38;6.75;;;;;;;4.92;72.47;97775.81;5132951;27;20035;-58
2023/11/15 08:52:40;;;;;;;9.82;6.55;;;;;;;4.83;72.65;97769.38;5116367;27;20043;-61
2023/11/15 08:55:08;;;;;;;10.43;6.57;;;;;;;4.70;71.55;97770.47;5098655;27;20047;-62
2023/11/15 08:57:35;;;;;;;10.55;6.70;;;;;;;4.73;71.98;97773.41;5132733;27;20046;-60
2023/11/15 09:00:02;;;;;;;10.82;6.30;;;;;;;4.72;72.41;97769.22;5133960;27;20043;-59
2023/11/15 09:02:31;;;;;;;9.40;6.55;;;;;;;4.69;72.33;97767.06;5133960;27;20039;-60
2023/11/15 09:04:57;;;;;;;12.60;6.85;;;;;;;4.51;71.30;97778.59;5131620;27;20047;-60
2023/11/15 09:07:22;;;;;;;11.85;6.78;;;;;;;4.51;72.29;97786.47;5132145;27;20035;-60
2023/11/15 09:09:48;;;;;;;9.60;6.22;;;;;;;4.51;72.28;97785.66;5101290;27;20067;-61
2023/11/15 09:12:27;;;;;;;11.88;6.57;;;;;;;4.46;72.79;97783.75;5095495;27;20035;-60
2023/11/15 09:14:53;;;;;;;13.00;6.68;;;;;;;4.50;73.76;97773.56;5132832;27;20122;-62
2023/11/15 09:17:20;;;;;;;11.70;7.10;;;;;;;4.54;73.74;97780.75;5132404;27;20490;-58
2023/11/15 09:19:49;;;;;;;10.63;6.20;;;;;;;4.57;73.47;97781.31;5133801;27;20036;-60
2023/11/15 09:22:15;;;;;;;11.27;7.07;;;;;;;4.52;72.98;97787.25;5133719;27;20039;-61
2023/11/15 09:24:41;;;;;;;11.18;6.90;;;;;;;4.47;71.65;97779.28;5132809;27;20415;-61
2023/11/15 09:27:07;;;;;;;11.15;6.70;;;;;;;4.54;73.39;97779.94;5133221;27;20046;-61
2023/11/15 09:29:34;;;;;;;11.20;6.75;;;;;;;4.52;72.57;97788.03;5132666;27;20035;-60
2023/11/15 09:32:01;;;;;;;10.63;6.70;;;;;;;4.55;72.66;97790.19;5131984;27;20137;-59
2023/11/15 09:34:27;;;;;;;10.38;6.78;;;;;;;4.56;73.25;97791.00;5131397;27;20039;-60
2023/11/15 09:36:53;;;;;;;10.27;6.53;;;;;;;4.55;73.87;97786.78;5133046;27;20043;-59
2023/11/15 09:39:20;;;;;;;13.23;7.43;;;;;;;4.58;73.39;97781.06;5131131;27;20039;-61
2023/11/15 09:41:55;;;;;;;10.40;7.38;;;;;;;4.58;72.56;97796.81;5133043;27;20035;-60
2023/11/15 09:44:23;;;;;;;12.63;7.82;;;;;;;4.58;72.35;97801.25;5097132;27;20043;-61
2023/11/15 09:46:53;;;;;;;10.38;7.25;;;;;;;4.54;73.24;97803.56;5131996;27;20039;-61
2023/11/15 09:49:21;;;;;;;;;;;;;;;4.45;73.68;97802.38;5115033;27;20035;-59
2023/11/15 09:51:46;;;;;;;8.45;5.05;;;;;;;4.32;74.12;97808.69;5131786;27;20015;-61
2023/11/15 09:54:12;;;;;;;9.65;6.13;;;;;;;4.18;74.94;97808.19;5132653;27;20078;-60
2023/11/15 09:56:40;;;;;;;10.55;6.63;;;;;;;4.26;75.63;97804.38;5132804;27;20070;-62
2023/11/15 09:59:06;;;;;;;13.88;6.53;;;;;;;4.39;75.10;97803.31;5132320;27;20499;-61
2023/11/15 10:01:32;;;;;;;15.98;7.30;;;;;;;4.41;73.82;97812.53;5133055;27;20042;-60
2023/11/15 10:03:59;;;;;;;10.00;6.68;;;;;;;4.45;74.43;97811.03;5132044;27;20047;-59
2023/11/15 10:06:38;;;;;;;8.77;6.60;;;;;;;4.41;74.20;97811.72;5132994;27;20043;-59
2023/11/15 10:09:05;;;;;;;10.35;6.30;;;;;;;4.44;73.91;97814.69;5122012;27;20047;-59
2023/11/15 10:11:31;;;;;;;9.68;5.63;;;;;;;4.43;74.67;97815.72;5132453;27;20035;-59
2023/11/15 10:14:09;;;;;;;10.82;5.93;;;;;;;4.42;74.78;97816.75;5132551;27;20051;-59
2023/11/15 10:16:36;;;;;;;9.88;5.45;;;;;;;4.46;75.28;97806.56;5136258;27;20078;-59
2023/11/15 10:19:22;;;;;;;7.90;5.45;;;;;;;4.54;75.87;97811.44;5132173;27;20081;-62
2023/11/15 10:22:04;;;;;;;9.55;5.20;;;;;;;4.64;74.70;97805.56;5114357;27;20057;-61
2023/11/15 10:24:31;;;;;;;10.23;6.00;;;;;;;4.62;74.96;97816.31;5132197;27;20058;-62
2023/11/15 10:27:07;;;;;;;11.27;7.72;;;;;;;4.72;73.44;97800.72;5110912;27;20031;-60
2023/11/15 10:29:37;;;;;;;11.77;7.18;;;;;;;4.66;74.19;97806.91;5121778;27;20460;-60
2023/11/15 10:32:03;;;;;;;11.03;6.93;;;;;;;4.78;74.29;97804.22;5131150;27;20039;-59
2023/11/15 10:34:31;;;;;;;13.13;7.55;;;;;;;4.80;73.54;97812.66;5132237;27;20054;-59
2023/11/15 10:37:16;;;;;;;15.25;8.85;;;;;;;4.89;74.85;97805.19;5132196;27;20572;-60
2023/11/15 10:39:46;;;;;;;12.82;8.02;;;;;;;4.93;73.92;97809.69;5113511;28;20043;-61
2023/11/15 10:42:13;;;;;;;11.30;7.03;;;;;;;4.98;74.64;97809.00;5131997;27;20403;-59
2023/11/15 10:44:40;;;;;;;10.15;6.47;;;;;;;5.00;73.50;97809.56;5130728;27;20541;-59
2023/11/15 10:47:08;;;;;;;10.30;6.75;;;;;;;5.05;73.69;97811.44;5131932;27;20035;-62
2023/11/15 10:49:39;;;;;;;14.15;7.43;;;;;;;5.06;72.78;97810.41;5130398;27;20045;-60
2023/11/15 10:52:09;;;;;;;11.35;6.85;;;;;;;4.96;73.42;97814.47;5131062;27;20052;-60
2023/11/15 10:54:36;;;;;;;9.00;6.18;;;;;;;4.97;73.88;97815.25;5131935;27;20043;-62
2023/11/15 10:57:04;;;;;;;11.85;6.90;;;;;;;4.98;73.40;97806.38;5130793;28;20043;-61
2023/11/15 10:59:37;;;;;;;11.35;6.68;;;;;;;5.00;73.49;97815.59;5122321;27;20572;-60
2023/11/15 11:02:05;;;;;;;10.07;6.53;;;;;;;5.07;74.50;97814.63;5110618;28;20057;-61
2023/11/15 11:04:36;;;;;;;13.27;6.72;;;;;;;4.87;72.98;97815.13;5110373;28;20043;-62
2023/11/15 11:07:24;;;;;;;10.63;7.25;;;;;;;4.93;74.14;97811.53;5106373;28;20039;-61
2023/11/15 11:09:59;;;;;;;12.85;7.47;;;;;;;5.06;72.63;97811.22;5092396;28;20043;-61
2023/11/15 11:12:27;;;;;;;16.75;8.15;;;;;;;5.01;72.43;97814.56;5108409;28;20067;-59
2023/11/15 11:15:19;;;;;;;13.80;8.65;;;;;;;5.08;73.90;97813.59;5111545;28;20052;-61
2023/11/15 11:17:47;;;;;;;16.63;8.15;;;;;;;5.16;73.52;97810.56;5107932;28;20047;-60
2023/11/15 11:20:27;;;;;;;13.25;8.55;;;;;;;5.14;73.25;97815.25;5111286;28;20036;-62
2023/11/15 11:23:08;;;;;;;13.48;8.23;;;;;;;5.13;72.77;97818.94;5112014;28;20043;-61
2023/11/15 11:25:40;;;;;;;13.43;8.80;;;;;;;5.14;71.85;97813.41;5111735;28;20100;-60
2023/11/15 11:28:07;;;;;;;15.48;8.88;;;;;;;4.98;72.97;97819.50;5109556;28;20043;-61
2023/11/15 11:30:33;;;;;;;13.40;8.38;;;;;;;5.01;73.38;97819.81;5112472;28;20150;-62
2023/11/15 11:33:15;;;;;;;11.27;7.30;;;;;;;5.08;73.80;97822.25;5094108;28;20028;-60
2023/11/15 11:35:46;;;;;;;12.30;7.35;;;;;;;5.07;73.15;97817.28;5107193;28;20035;-61
2023/11/15 11:38:37;;;;;;;11.75;7.60;;;;;;;5.09;73.99;97818.63;5111561;28;20040;-61
2023/11/15 11:41:04;;;;;;;12.55;8.23;;;;;;;5.11;73.70;97827.03;5109179;28;20047;-62